Time;durP1;ratioP1;P1;durP2;ratioP2;P2;SDS_P1;SDS_P2;PMS_P1;PMS_P2;Temp;Humidity;BMP_temperature;BMP_pressure;BME280_temperature;BME280_humidity;BME280_pressure;Samples;Min_cycle;Max_cycle;Signal;HPM_P1;HPM_P2
2022/01/13 00:01:34;;;;;;;47.97;7.30;;;4.40;99.90;;;;;;5022924;28;20037;-61
2022/01/13 00:04:00;;;;;;;59.80;6.38;;;4.40;99.90;;;;;;5026906;28;20029;-62
2022/01/13 00:06:26;;;;;;;49.65;7.78;;;4.30;99.90;;;;;;5026569;28;20099;-62
2022/01/13 00:08:51;;;;;;;23.83;5.25;;;4.40;99.90;;;;;;5026581;28;20046;-61
2022/01/13 00:11:17;;;;;;;55.15;6.55;;;4.40;99.90;;;;;;5031025;28;20033;-61
2022/01/13 00:14:10;;;;;;;23.80;6.38;;;4.40;99.90;;;;;;5029484;28;20037;-62
2022/01/13 00:16:55;;;;;;;28.05;6.20;;;4.40;99.90;;;;;;5030631;28;20034;-62
2022/01/13 00:19:33;;;;;;;27.48;6.22;;;4.40;99.90;;;;;;5026204;28;20037;-63
2022/01/13 00:22:14;;;;;;;39.33;6.88;;;4.40;99.90;;;;;;5027242;28;20024;-62
2022/01/13 00:24:43;;;;;;;41.65;6.80;;;4.40;99.90;;;;;;5023146;28;20073;-61
2022/01/13 00:27:12;;;;;;;46.80;6.80;;;4.40;99.90;;;;;;5027127;28;20088;-61
2022/01/13 00:29:43;;;;;;;43.53;6.60;;;4.40;99.90;;;;;;5025953;28;20409;-61
2022/01/13 00:32:11;;;;;;;38.20;6.53;;;4.40;99.90;;;;;;5022886;28;20037;-62
2022/01/13 00:34:37;;;;;;;37.55;6.47;;;4.40;99.90;;;;;;5026563;28;20503;-62
2022/01/13 00:37:03;;;;;;;49.97;8.07;;;4.40;99.90;;;;;;5029191;28;20120;-62
2022/01/13 00:39:28;;;;;;;29.05;6.25;;;4.40;99.90;;;;;;5030431;28;20083;-61
2022/01/13 00:41:54;;;;;;;31.00;7.07;;;4.40;99.90;;;;;;5026549;28;20193;-63
2022/01/13 00:44:21;;;;;;;29.55;6.28;;;4.40;99.90;;;;;;5030764;28;20029;-61
2022/01/13 00:46:58;;;;;;;40.30;6.78;;;4.40;99.90;;;;;;5029973;28;20037;-62
2022/01/13 00:49:24;;;;;;;19.70;5.65;;;4.40;99.90;;;;;;5029731;28;20048;-61
2022/01/13 00:51:50;;;;;;;48.88;8.23;;;4.40;99.90;;;;;;5029818;28;20029;-61
2022/01/13 00:54:15;;;;;;;35.70;6.80;;;4.40;99.90;;;;;;5030271;28;20397;-61
2022/01/13 00:56:41;;;;;;;30.20;6.63;;;4.40;99.90;;;;;;5029878;28;20485;-62
2022/01/13 00:59:10;;;;;;;29.17;6.25;;;4.40;99.90;;;;;;5030556;28;20030;-61
2022/01/13 01:01:41;;;;;;;56.05;7.55;;;4.40;99.90;;;;;;5036522;28;20061;-62
2022/01/13 01:04:07;;;;;;;29.95;6.50;;;4.40;99.90;;;;;;5022446;28;20547;-62
2022/01/13 01:06:34;;;;;;;31.02;6.35;;;4.40;99.90;;;;;;5029704;28;20045;-61
2022/01/13 01:09:00;;;;;;;64.15;8.10;;;4.50;99.90;;;;;;5030279;28;20071;-62
2022/01/13 01:11:26;;;;;;;26.83;6.43;;;4.40;99.90;;;;;;5029316;28;20124;-63
2022/01/13 01:13:54;;;;;;;20.40;5.78;;;4.40;99.90;;;;;;5030110;28;20044;-61
2022/01/13 01:16:20;;;;;;;45.40;7.40;;;4.40;99.90;;;;;;5028601;28;20044;-61
2022/01/13 01:26:42;;;;;;;56.72;8.43;;;4.40;99.90;;;;;;5029564;28;20040;-62
2022/01/13 01:31:53;;;;;;;48.72;8.40;;;4.50;99.90;;;;;;5017363;28;20041;-62
2022/01/13 01:37:13;;;;;;;29.80;7.13;;;4.50;99.90;;;;;;5022086;28;20044;-62
2022/01/13 01:39:39;;;;;;;57.38;8.95;;;4.50;99.90;;;;;;5025283;28;20037;-61
2022/01/13 01:42:05;;;;;;;77.20;10.88;;;4.40;99.90;;;;;;5026297;28;20036;-62
2022/01/13 01:44:35;;;;;;;65.15;9.45;;;4.50;99.90;;;;;;5029247;28;20112;-62
2022/01/13 01:47:01;;;;;;;;;;;4.50;99.90;;;;;;5028406;28;20026;-62
2022/01/13 01:49:27;;;;;;;64.18;9.57;;;4.50;99.90;;;;;;5027470;28;19924;-62
2022/01/13 01:51:56;;;;;;;77.40;9.43;;;4.50;99.90;;;;;;5028918;28;20041;-62
2022/01/13 01:54:23;;;;;;;56.35;9.60;;;4.50;99.90;;;;;;5029117;28;20032;-62
2022/01/13 01:56:49;;;;;;;45.50;8.52;;;4.50;99.90;;;;;;5029093;28;20038;-62
2022/01/13 01:59:19;;;;;;;48.55;8.55;;;4.50;99.90;;;;;;5005089;28;20061;-62
2022/01/13 02:01:47;;;;;;;32.03;8.38;;;4.50;99.90;;;;;;5023659;28;20500;-62
2022/01/13 02:04:13;;;;;;;87.60;11.13;;;4.50;99.90;;;;;;5021574;28;20087;-62
2022/01/13 02:06:39;;;;;;;85.88;11.23;;;4.50;99.90;;;;;;5028582;28;20485;-62
2022/01/13 02:09:07;;;;;;;46.20;8.65;;;4.50;99.90;;;;;;5029500;28;20036;-62
2022/01/13 02:11:42;;;;;;;42.80;9.82;;;4.50;99.90;;;;;;5028532;28;20037;-62
2022/01/13 02:17:10;;;;;;;63.45;11.35;;;4.50;99.90;;;;;;5023774;28;20095;-60
2022/01/13 02:19:42;;;;;;;76.32;12.90;;;4.50;99.90;;;;;;5028826;28;20041;-61
2022/01/13 02:22:08;;;;;;;47.15;10.38;;;4.50;99.90;;;;;;5028788;28;20481;-61
2022/01/13 02:24:35;;;;;;;72.57;13.88;;;4.50;99.90;;;;;;5027297;28;20439;-60
2022/01/13 02:27:02;;;;;;;76.82;12.48;;;4.60;99.90;;;;;;5028858;28;20065;-62
2022/01/13 02:29:28;;;;;;;59.35;11.18;;;4.60;99.90;;;;;;5028523;28;20033;-62
2022/01/13 02:31:53;;;;;;;63.63;13.15;;;4.60;99.90;;;;;;5028784;28;20037;-61
2022/01/13 02:34:20;;;;;;;54.85;12.40;;;4.60;99.90;;;;;;5028850;28;20450;-62
2022/01/13 02:36:48;;;;;;;61.85;13.60;;;4.50;99.90;;;;;;5028842;28;20133;-62
2022/01/13 02:39:14;;;;;;;77.38;14.70;;;4.60;99.90;;;;;;5029032;28;20029;-61
2022/01/13 02:41:40;;;;;;;74.55;15.48;;;4.60;99.90;;;;;;5024754;28;20141;-61
2022/01/13 02:44:15;;;;;;;81.03;14.25;;;4.60;99.90;;;;;;5028364;28;20394;-61
2022/01/13 02:49:12;;;;;;;74.85;14.48;;;4.60;99.90;;;;;;5028987;28;20041;-61
2022/01/13 02:51:40;;;;;;;74.65;14.25;;;4.60;99.90;;;;;;5029957;28;20033;-61
2022/01/13 02:54:06;;;;;;;63.45;12.50;;;4.70;99.90;;;;;;5032516;28;20042;-61
2022/01/13 02:56:32;;;;;;;76.22;13.68;;;4.70;99.90;;;;;;5031990;28;20033;-61
2022/01/13 02:58:58;;;;;;;60.60;13.68;;;4.70;99.90;;;;;;5032487;28;20107;-61
2022/01/13 03:01:24;;;;;;;79.78;14.60;;;4.70;99.90;;;;;;5031579;28;20576;-61
2022/01/13 03:03:50;;;;;;;75.05;14.23;;;4.70;99.90;;;;;;5032365;28;20183;-62
2022/01/13 03:06:24;;;;;;;66.95;13.15;;;4.70;99.90;;;;;;5032169;28;20128;-61
2022/01/13 03:08:51;;;;;;;65.40;12.68;;;4.70;99.90;;;;;;5032015;28;20041;-62
2022/01/13 03:11:18;;;;;;;64.80;13.13;;;4.70;99.90;;;;;;5030800;28;20029;-62
2022/01/13 03:13:43;;;;;;;73.38;12.95;;;4.70;99.90;;;;;;5030377;28;20401;-61
2022/01/13 03:16:11;;;;;;;64.57;12.82;;;4.70;99.90;;;;;;5032429;28;20034;-61
2022/01/13 03:18:38;;;;;;;78.90;12.73;;;4.70;99.90;;;;;;5023895;28;20037;-61
2022/01/13 03:21:05;;;;;;;86.38;12.65;;;4.70;99.90;;;;;;5031733;28;20029;-61
2022/01/13 03:23:31;;;;;;;85.75;12.45;;;4.70;99.90;;;;;;5031721;28;20039;-62
2022/01/13 03:25:57;;;;;;;56.17;11.23;;;4.70;99.90;;;;;;5032163;28;20048;-62
2022/01/13 03:28:30;;;;;;;64.47;11.77;;;4.70;99.90;;;;;;5031436;28;20409;-62
2022/01/13 03:30:58;;;;;;;74.22;11.98;;;4.70;99.90;;;;;;5031894;28;20057;-61
2022/01/13 03:33:24;;;;;;;47.67;11.27;;;4.70;99.90;;;;;;5031197;28;20037;-62
2022/01/13 03:35:49;;;;;;;87.82;12.55;;;4.70;99.90;;;;;;5031783;28;20041;-61
2022/01/13 03:38:15;;;;;;;79.10;12.45;;;4.70;99.90;;;;;;5031972;28;20029;-62
2022/01/13 03:40:41;;;;;;;130.10;16.55;;;4.70;99.90;;;;;;5031349;28;20088;-61
2022/01/13 03:43:07;;;;;;;128.30;15.43;;;4.70;99.90;;;;;;5028495;28;20030;-62
2022/01/13 03:45:33;;;;;;;63.55;12.95;;;4.70;99.90;;;;;;5031005;28;20029;-61
2022/01/13 03:48:00;;;;;;;66.35;12.70;;;4.60;99.90;;;;;;5031756;28;20409;-62
2022/01/13 03:50:26;;;;;;;71.28;13.88;;;4.70;99.90;;;;;;5031365;28;20033;-62
2022/01/13 03:53:01;;;;;;;73.30;13.15;;;4.70;99.90;;;;;;5032735;28;20107;-62
2022/01/13 03:55:59;;;;;;;67.68;11.48;;;4.70;99.90;;;;;;5034690;28;20029;-61
2022/01/13 03:59:02;;;;;;;68.82;13.50;;;4.70;99.90;;;;;;5005864;28;20485;-61
2022/01/13 04:01:46;;;;;;;57.40;11.45;;;4.70;99.90;;;;;;5020985;28;20327;-62
2022/01/13 04:04:11;;;;;;;66.97;11.75;;;4.80;99.90;;;;;;5025303;28;20045;-61
2022/01/13 04:06:40;;;;;;;89.57;14.40;;;4.70;99.90;;;;;;5032201;28;20029;-62
2022/01/13 04:09:19;;;;;;;63.85;12.35;;;4.70;99.90;;;;;;5039904;28;20113;-63
2022/01/13 04:11:45;;;;;;;117.65;15.50;;;4.70;99.90;;;;;;5028732;28;20049;-62
2022/01/13 04:14:10;;;;;;;83.22;15.20;;;4.80;99.90;;;;;;5029863;28;20397;-61
2022/01/13 04:16:37;;;;;;;83.03;13.50;;;4.80;99.90;;;;;;5030842;28;20044;-63
2022/01/13 04:19:08;;;;;;;75.10;13.52;;;4.80;99.90;;;;;;5030883;28;20026;-62
2022/01/13 04:21:36;;;;;;;66.65;11.93;;;4.80;99.90;;;;;;5022459;28;20564;-62
2022/01/13 04:24:10;;;;;;;121.63;14.23;;;4.80;99.90;;;;;;5029430;28;20026;-63
2022/01/13 04:26:37;;;;;;;69.50;12.52;;;4.80;99.90;;;;;;5023405;28;20029;-61
2022/01/13 04:29:18;;;;;;;71.13;11.63;;;4.80;99.90;;;;;;5030652;28;20033;-61
2022/01/13 04:31:47;;;;;;;74.35;12.65;;;4.80;99.90;;;;;;5027623;28;20128;-61
2022/01/13 04:34:13;;;;;;;126.45;17.17;;;4.80;99.90;;;;;;5030726;28;20029;-61
2022/01/13 04:36:39;;;;;;;95.95;15.13;;;4.80;99.90;;;;;;5030427;28;20056;-62
2022/01/13 04:39:07;;;;;;;81.63;12.70;;;4.80;99.90;;;;;;5030665;28;20121;-61
2022/01/13 04:41:35;;;;;;;70.15;11.55;;;4.80;99.90;;;;;;5019241;28;20037;-60
2022/01/13 04:44:07;;;;;;;96.00;13.93;;;4.90;99.90;;;;;;5025157;28;20137;-62
2022/01/13 04:46:33;;;;;;;67.32;11.18;;;4.90;99.90;;;;;;5021753;28;20034;-62
2022/01/13 04:48:59;;;;;;;57.65;11.50;;;4.90;99.90;;;;;;5030379;28;20095;-62
2022/01/13 04:51:26;;;;;;;49.03;10.43;;;4.90;99.90;;;;;;5028457;28;20052;-62
2022/01/13 04:53:51;;;;;;;102.85;14.43;;;4.80;99.90;;;;;;5030071;28;20034;-62
2022/01/13 04:56:28;;;;;;;58.75;11.75;;;4.80;99.90;;;;;;5030147;28;20039;-61
2022/01/13 04:58:53;;;;;;;55.70;11.23;;;4.80;99.90;;;;;;5030083;28;20386;-62
2022/01/13 05:01:19;;;;;;;64.40;10.02;;;4.80;99.90;;;;;;5029926;28;20064;-62
2022/01/13 05:03:45;;;;;;;79.38;11.90;;;4.80;99.90;;;;;;5028248;28;20042;-62
2022/01/13 05:06:12;;;;;;;54.90;9.98;;;4.90;99.90;;;;;;5030083;28;20424;-62
2022/01/13 05:08:38;;;;;;;49.03;9.80;;;4.90;99.90;;;;;;5029345;28;20053;-62
2022/01/13 05:11:04;;;;;;;100.40;13.50;;;4.90;99.90;;;;;;5029702;28;20060;-62
2022/01/13 05:13:29;;;;;;;60.15;9.60;;;4.90;99.90;;;;;;5028765;28;20052;-61
2022/01/13 05:15:55;;;;;;;52.67;10.73;;;4.90;99.90;;;;;;5029867;28;20398;-62
2022/01/13 05:18:28;;;;;;;55.30;10.27;;;4.80;99.90;;;;;;5028236;28;20079;-64
2022/01/13 05:21:45;;;;;;;68.47;11.52;;;4.90;99.90;;;;;;5028007;28;20048;-61
2022/01/13 05:23:42;;;;;;;47.10;10.48;;;4.90;99.90;;;;;;5024394;28;20500;-62
2022/01/13 05:26:09;;;;;;;87.55;12.73;;;4.90;99.90;;;;;;5029739;28;20038;-62
2022/01/13 05:28:35;;;;;;;61.08;10.65;;;4.90;99.90;;;;;;5029375;28;20033;-62
2022/01/13 05:31:01;;;;;;;54.13;9.40;;;4.90;99.90;;;;;;5022228;28;20034;-62
2022/01/13 05:33:26;;;;;;;48.03;10.55;;;4.90;99.90;;;;;;5015519;28;20033;-63
2022/01/13 05:35:52;;;;;;;78.97;12.05;;;4.80;99.90;;;;;;5018422;28;20066;-62
2022/01/13 05:38:18;;;;;;;85.50;12.90;;;4.80;99.90;;;;;;5014396;28;20034;-61
2022/01/13 05:40:44;;;;;;;101.47;14.10;;;4.80;99.90;;;;;;5010796;28;20042;-61
2022/01/13 05:43:10;;;;;;;54.67;10.27;;;4.80;99.90;;;;;;5010504;28;20042;-61
2022/01/13 05:45:36;;;;;;;78.40;12.32;;;4.80;99.90;;;;;;5012725;28;20120;-61
2022/01/13 05:48:02;;;;;;;75.38;11.48;;;4.80;99.90;;;;;;5014097;28;20120;-61
2022/01/13 05:50:29;;;;;;;54.72;11.05;;;4.80;99.90;;;;;;5021664;28;20053;-62
2022/01/13 05:52:55;;;;;;;74.28;12.50;;;4.80;99.90;;;;;;5016574;28;20091;-61
2022/01/13 05:55:22;;;;;;;87.35;13.40;;;4.80;99.90;;;;;;5017803;28;20035;-61
2022/01/13 05:57:48;;;;;;;74.63;11.77;;;4.70;99.90;;;;;;5019066;28;20034;-61
2022/01/13 06:00:16;;;;;;;58.13;11.23;;;4.80;99.90;;;;;;5028666;28;20091;-62
2022/01/13 06:02:42;;;;;;;63.25;13.35;;;4.90;99.90;;;;;;5006850;28;20042;-60
2022/01/13 06:05:09;;;;;;;70.75;13.55;;;4.90;99.90;;;;;;5023580;28;20428;-61
2022/01/13 06:07:35;;;;;;;39.65;11.00;;;4.80;99.90;;;;;;5014796;28;20466;-62
2022/01/13 06:10:01;;;;;;;59.00;12.52;;;4.80;99.90;;;;;;5013762;28;20412;-61
2022/01/13 06:12:35;;;;;;;89.30;11.13;;;4.80;99.90;;;;;;5016699;28;20042;-62
2022/01/13 06:15:01;;;;;;;89.10;13.80;;;4.80;99.90;;;;;;5017209;28;20029;-62
2022/01/13 06:17:27;;;;;;;75.57;12.35;;;4.80;99.90;;;;;;5012936;28;20033;-63
2022/01/13 06:19:55;;;;;;;67.10;12.13;;;4.80;99.90;;;;;;5011381;28;20045;-62
2022/01/13 06:22:21;;;;;;;61.85;11.85;;;4.80;99.90;;;;;;5018379;28;20046;-62
2022/01/13 06:24:47;;;;;;;54.75;10.82;;;4.80;99.90;;;;;;5016910;28;20406;-62
2022/01/13 06:27:13;;;;;;;66.35;11.80;;;4.80;99.90;;;;;;5016683;28;20036;-62
2022/01/13 06:29:38;;;;;;;56.97;11.40;;;4.80;99.90;;;;;;5020362;28;20526;-62
2022/01/13 06:32:04;;;;;;;51.63;11.23;;;4.80;99.90;;;;;;5018262;28;20033;-62
2022/01/13 06:34:29;;;;;;;58.22;11.80;;;4.80;99.90;;;;;;5017462;28;20028;-61
2022/01/13 06:36:55;;;;;;;84.93;15.13;;;4.80;99.90;;;;;;5018838;28;20046;-62
2022/01/13 06:39:20;;;;;;;54.70;12.52;;;4.80;99.90;;;;;;5019452;28;20029;-62
2022/01/13 06:41:46;;;;;;;64.72;14.10;;;4.80;99.90;;;;;;5016954;28;20405;-62
2022/01/13 06:44:12;;;;;;;58.45;11.93;;;4.80;99.90;;;;;;5015851;28;20049;-62
2022/01/13 06:46:38;;;;;;;55.92;12.13;;;4.80;99.90;;;;;;5021164;28;20032;-62
2022/01/13 06:49:04;;;;;;;47.90;12.48;;;4.80;99.90;;;;;;5018072;28;20036;-62
2022/01/13 06:51:30;;;;;;;44.70;11.18;;;4.80;99.90;;;;;;5015391;28;20030;-62
2022/01/13 06:53:56;;;;;;;52.00;11.60;;;4.80;99.90;;;;;;5020951;28;20096;-62
2022/01/13 06:56:24;;;;;;;59.25;12.27;;;4.90;99.90;;;;;;5018694;28;20521;-63
2022/01/13 06:58:53;;;;;;;54.22;12.38;;;4.80;99.90;;;;;;5020171;28;20045;-61
2022/01/13 07:01:21;;;;;;;100.65;15.73;;;4.90;99.90;;;;;;5015016;28;20048;-61
2022/01/13 07:03:47;;;;;;;53.92;11.73;;;4.90;99.90;;;;;;5022939;28;20048;-62
2022/01/13 07:06:12;;;;;;;78.10;14.60;;;4.80;99.90;;;;;;5017967;28;20034;-62
2022/01/13 07:08:38;;;;;;;66.45;12.93;;;4.90;99.90;;;;;;5019360;28;20068;-62
2022/01/13 07:11:04;;;;;;;52.78;12.18;;;4.90;99.90;;;;;;5025014;28;20052;-61
2022/01/13 07:13:33;;;;;;;64.18;12.52;;;4.80;99.90;;;;;;5015308;28;20112;-63
2022/01/13 07:16:00;;;;;;;43.60;11.77;;;4.80;99.90;;;;;;5014329;28;20490;-61
2022/01/13 07:18:30;;;;;;;92.28;15.25;;;4.90;99.90;;;;;;5018441;28;20121;-61
2022/01/13 07:20:56;;;;;;;42.80;11.15;;;4.90;99.90;;;;;;5013361;28;20045;-61
2022/01/13 07:23:23;;;;;;;52.45;11.43;;;4.90;99.90;;;;;;5017555;28;20030;-62
2022/01/13 07:25:49;;;;;;;48.13;11.48;;;4.90;99.90;;;;;;5016274;28;20041;-61
2022/01/13 07:28:15;;;;;;;52.60;12.05;;;4.90;99.90;;;;;;5020329;28;20108;-61
2022/01/13 07:30:40;;;;;;;66.03;12.77;;;4.90;99.90;;;;;;5022798;28;20561;-61
2022/01/13 07:33:06;;;;;;;65.32;12.60;;;4.90;99.90;;;;;;5018092;28;20132;-61
2022/01/13 07:35:32;;;;;;;62.35;11.20;;;4.90;99.90;;;;;;5018872;28;20045;-67
2022/01/13 07:37:58;;;;;;;67.82;13.02;;;4.90;99.90;;;;;;5021006;28;20030;-61
2022/01/13 07:40:23;;;;;;;69.38;10.95;;;4.80;99.90;;;;;;5017762;28;20121;-62
2022/01/13 07:42:49;;;;;;;63.88;13.45;;;4.80;99.90;;;;;;5015718;28;20104;-62
2022/01/13 07:45:18;;;;;;;54.03;11.85;;;4.90;99.90;;;;;;5022051;28;20026;-61
2022/01/13 07:47:43;;;;;;;49.35;11.05;;;4.90;99.90;;;;;;5018583;28;20033;-61
2022/01/13 07:50:11;;;;;;;48.22;13.02;;;4.90;99.90;;;;;;5015417;28;20445;-61
2022/01/13 07:52:36;;;;;;;52.60;10.88;;;4.90;99.90;;;;;;5016119;28;20037;-62
2022/01/13 07:55:03;;;;;;;41.97;10.90;;;4.90;99.90;;;;;;5019010;28;20032;-62
2022/01/13 07:57:29;;;;;;;62.08;11.55;;;4.90;99.90;;;;;;5018613;28;20489;-62
2022/01/13 07:59:56;;;;;;;44.13;11.45;;;4.90;99.90;;;;;;5016567;28;20049;-62
2022/01/13 08:02:22;;;;;;;47.28;11.63;;;4.90;99.90;;;;;;5013188;28;20508;-61
2022/01/13 08:04:49;;;;;;;58.25;11.82;;;4.80;99.90;;;;;;5020260;28;20026;-61
2022/01/13 08:07:17;;;;;;;54.22;12.75;;;4.90;99.90;;;;;;5016350;28;20038;-61
2022/01/13 08:09:43;;;;;;;47.13;10.38;;;4.90;99.90;;;;;;5018036;28;20034;-61
2022/01/13 08:12:09;;;;;;;49.13;11.80;;;4.90;99.90;;;;;;5017411;28;20045;-61
2022/01/13 08:14:34;;;;;;;45.00;11.27;;;4.90;99.90;;;;;;5015399;28;20025;-61
2022/01/13 08:17:02;;;;;;;48.75;10.82;;;5.00;99.90;;;;;;5016137;28;20091;-61
2022/01/13 08:19:46;;;;;;;50.20;11.23;;;5.00;99.90;;;;;;5018477;28;20030;-64
2022/01/13 08:22:16;;;;;;;49.90;11.05;;;4.90;99.90;;;;;;5020768;28;20463;-61
2022/01/13 08:24:42;;;;;;;39.13;10.43;;;5.00;99.90;;;;;;5019787;28;20474;-61
2022/01/13 08:27:08;;;;;;;46.85;12.50;;;5.00;99.90;;;;;;5016838;28;20064;-63
2022/01/13 08:29:34;;;;;;;54.95;12.27;;;5.00;99.90;;;;;;5018184;28;20045;-62
2022/01/13 08:32:00;;;;;;;41.58;10.55;;;5.00;99.90;;;;;;5016858;28;20045;-62
2022/01/13 08:34:25;;;;;;;36.95;11.40;;;5.00;99.90;;;;;;5013154;28;20077;-61
2022/01/13 08:36:51;;;;;;;57.17;12.23;;;5.00;99.90;;;;;;5018908;28;20050;-61
2022/01/13 08:39:16;;;;;;;62.95;11.63;;;5.00;99.90;;;;;;5020627;28;20083;-61
2022/01/13 08:41:43;;;;;;;44.53;11.60;;;5.00;99.90;;;;;;5016755;28;20088;-61
2022/01/13 08:44:09;;;;;;;55.40;11.70;;;5.00;99.90;;;;;;5015849;28;20709;-60
2022/01/13 08:46:35;;;;;;;39.38;11.20;;;5.00;99.90;;;;;;5019224;28;20026;-61
2022/01/13 08:49:02;;;;;;;46.95;11.82;;;5.00;99.90;;;;;;5013096;28;20033;-61
2022/01/13 08:51:28;;;;;;;60.22;12.75;;;5.10;99.90;;;;;;5013637;28;20065;-61
2022/01/13 08:53:53;;;;;;;41.33;11.75;;;5.20;99.90;;;;;;5016618;28;20449;-62
2022/01/13 08:56:19;;;;;;;51.40;11.93;;;5.10;99.90;;;;;;5016725;28;20064;-61
2022/01/13 08:58:46;;;;;;;45.03;10.95;;;5.10;99.90;;;;;;5018352;28;20478;-61
2022/01/13 09:01:12;;;;;;;63.75;12.82;;;5.10;99.90;;;;;;5015541;28;20047;-62
2022/01/13 09:03:38;;;;;;;48.80;12.27;;;5.10;99.90;;;;;;5020520;28;20124;-62
2022/01/13 09:06:04;;;;;;;50.85;13.20;;;5.20;99.90;;;;;;5017475;28;20141;-62
2022/01/13 09:08:31;;;;;;;47.60;11.50;;;5.20;99.90;;;;;;5013629;28;20044;-61
2022/01/13 09:10:57;;;;;;;54.67;11.15;;;5.20;99.90;;;;;;5018952;28;20041;-61
2022/01/13 09:13:23;;;;;;;49.65;11.57;;;5.20;99.90;;;;;;5015780;28;20029;-62
2022/01/13 09:16:41;;;;;;;86.18;14.88;;;5.30;99.90;;;;;;5017258;28;20551;-61
2022/01/13 09:21:29;;;;;;;58.65;12.50;;;5.30;99.90;;;;;;5013094;28;20063;-62
2022/01/13 09:23:55;;;;;;;52.63;13.32;;;5.40;99.90;;;;;;5017854;28;20044;-62
2022/01/13 09:26:21;;;;;;;50.97;11.85;;;5.40;99.90;;;;;;5015705;28;20405;-62
2022/01/13 09:28:46;;;;;;;59.22;13.55;;;5.40;99.90;;;;;;5012021;28;20030;-60
2022/01/13 09:31:12;;;;;;;51.47;11.68;;;5.40;99.90;;;;;;5017302;28;20037;-61
2022/01/13 09:33:38;;;;;;;56.13;13.20;;;5.40;99.90;;;;;;5028326;28;20115;-61
2022/01/13 09:36:08;;;;;;;65.03;13.85;;;5.40;99.90;;;;;;5015031;28;20069;-62
2022/01/13 09:38:34;;;;;;;58.40;12.35;;;5.50;99.90;;;;;;5013279;28;20048;-61
2022/01/13 09:41:01;;;;;;;55.72;12.15;;;5.50;99.90;;;;;;5018069;28;20062;-61
2022/01/13 09:43:27;;;;;;;71.68;14.13;;;5.60;99.90;;;;;;5013039;28;20061;-62
2022/01/13 09:45:55;;;;;;;44.40;12.30;;;5.60;99.90;;;;;;5011926;28;20058;-60
2022/01/13 09:48:21;;;;;;;44.53;11.48;;;5.60;99.90;;;;;;5013364;28;20092;-61
2022/01/13 09:50:48;;;;;;;44.45;12.20;;;5.60;99.90;;;;;;5013851;28;20038;-62
2022/01/13 09:53:15;;;;;;;47.80;11.15;;;5.60;99.90;;;;;;5011814;28;20040;-62
2022/01/13 09:55:45;;;;;;;54.65;12.18;;;5.70;99.90;;;;;;5014441;28;20041;-62
2022/01/13 09:58:11;;;;;;;48.22;11.68;;;5.70;99.90;;;;;;5017523;28;20614;-62
2022/01/13 10:00:38;;;;;;;47.53;11.88;;;5.70;99.90;;;;;;5010377;28;20117;-62
2022/01/13 10:03:15;;;;;;;40.97;10.27;;;5.80;99.90;;;;;;5014006;28;20103;-62
2022/01/13 10:05:58;;;;;;;39.13;11.35;;;5.80;99.90;;;;;;5015384;28;20493;-62
2022/01/13 10:08:41;;;;;;;59.20;12.13;;;5.80;99.90;;;;;;5010947;28;20046;-61
2022/01/13 10:11:26;;;;;;;42.85;10.45;;;5.80;99.90;;;;;;5014452;28;20049;-61
2022/01/13 10:14:14;;;;;;;53.60;12.30;;;5.80;99.90;;;;;;5016316;28;20513;-61
2022/01/13 10:16:47;;;;;;;55.58;12.73;;;5.90;99.90;;;;;;5010498;28;20041;-65
2022/01/13 10:19:37;;;;;;;61.58;12.60;;;5.90;99.90;;;;;;5018059;28;20461;-61
2022/01/13 10:22:16;;;;;;;52.25;12.45;;;5.90;99.90;;;;;;5018276;28;20062;-62
2022/01/13 10:24:44;;;;;;;58.42;12.88;;;5.90;99.90;;;;;;5018448;28;20503;-62
2022/01/13 10:27:19;;;;;;;36.92;11.48;;;5.90;99.90;;;;;;5018101;28;20040;-64
2022/01/13 10:29:50;;;;;;;42.15;10.10;;;5.90;99.90;;;;;;5015322;28;20714;-62
2022/01/13 10:32:19;;;;;;;44.05;13.10;;;6.00;99.90;;;;;;5015131;28;20038;-61
2022/01/13 10:34:49;;;;;;;41.53;10.55;;;6.00;99.90;;;;;;5018455;28;20038;-62
2022/01/13 10:37:18;;;;;;;45.40;11.33;;;6.00;99.90;;;;;;5009590;28;20030;-61
2022/01/13 10:40:04;;;;;;;39.28;12.15;;;6.00;99.90;;;;;;5016825;28;20284;-63
2022/01/13 10:45:05;;;;;;;48.53;13.10;;;6.00;99.90;;;;;;5013538;28;20040;-62
2022/01/13 10:47:31;;;;;;;45.05;11.73;;;6.00;99.90;;;;;;5012111;28;20033;-60
2022/01/13 10:50:14;;;;;;;55.60;14.10;;;6.10;99.90;;;;;;5016027;28;20046;-62
2022/01/13 10:52:40;;;;;;;51.03;12.82;;;6.10;99.90;;;;;;5017471;28;20106;-64
2022/01/13 10:55:08;;;;;;;44.58;12.57;;;6.00;99.90;;;;;;5014696;28;20486;-61
2022/01/13 10:57:34;;;;;;;48.80;13.98;;;6.10;99.90;;;;;;5012234;28;20054;-62
2022/01/13 11:00:03;;;;;;;47.42;13.45;;;6.20;99.90;;;;;;5014144;28;20038;-62
2022/01/13 11:02:28;;;;;;;42.05;12.80;;;6.10;99.90;;;;;;5014993;28;20065;-62
2022/01/13 11:04:54;;;;;;;46.38;12.57;;;6.20;99.90;;;;;;5010234;28;20053;-63
2022/01/13 11:07:24;;;;;;;41.10;11.57;;;6.30;99.90;;;;;;5014342;28;20036;-62
2022/01/13 11:09:55;;;;;;;37.55;11.45;;;6.30;99.90;;;;;;5014532;28;20030;-60
2022/01/13 11:12:28;;;;;;;;;;;6.30;99.90;;;;;;5015969;28;20029;-61
2022/01/13 11:14:59;;;;;;;43.83;11.85;;;6.30;99.90;;;;;;5013165;28;20122;-61
2022/01/13 11:17:27;;;;;;;44.08;11.63;;;6.40;99.90;;;;;;5017595;28;20054;-63
2022/01/13 11:19:54;;;;;;;36.35;10.60;;;6.40;99.90;;;;;;5015064;28;20490;-63
2022/01/13 11:22:21;;;;;;;46.90;12.93;;;6.40;99.90;;;;;;5018521;28;20024;-68
2022/01/13 11:24:48;;;;;;;41.45;10.65;;;6.30;99.90;;;;;;5013242;28;20041;-62
2022/01/13 11:27:17;;;;;;;36.03;11.00;;;6.30;99.90;;;;;;5013865;28;20397;-63
2022/01/13 11:29:45;;;;;;;32.15;8.55;;;6.30;99.90;;;;;;5016555;28;20037;-62
2022/01/13 11:32:11;;;;;;;28.63;9.15;;;6.30;99.90;;;;;;5017225;28;20033;-62
2022/01/13 11:34:38;;;;;;;35.72;10.02;;;6.30;99.90;;;;;;5013123;28;20038;-61
2022/01/13 11:37:04;;;;;;;42.20;9.90;;;6.40;99.90;;;;;;5018357;28;20030;-62
2022/01/13 11:39:40;;;;;;;40.90;9.80;;;6.30;99.90;;;;;;5015211;28;20029;-63
2022/01/13 11:42:09;;;;;;;36.22;9.98;;;6.30;99.90;;;;;;5015325;28;20424;-61
2022/01/13 11:44:36;;;;;;;35.65;10.10;;;6.40;99.90;;;;;;5017061;28;20060;-62
2022/01/13 11:47:08;;;;;;;43.70;11.10;;;6.40;99.90;;;;;;5015691;28;20034;-62
2022/01/13 11:52:27;;;;;;;41.35;10.20;;;6.40;99.90;;;;;;5017573;28;20083;-65
2022/01/13 11:54:53;;;;;;;;;;;6.40;99.90;;;;;;5019533;28;20040;-62
2022/01/13 11:57:26;;;;;;;32.20;9.20;;;6.30;99.90;;;;;;5017459;28;20417;-61
2022/01/13 11:59:55;;;;;;;32.38;10.55;;;6.30;99.90;;;;;;5020629;28;20047;-61
2022/01/13 12:02:29;;;;;;;39.53;10.07;;;6.30;99.90;;;;;;5013641;28;20040;-61
2022/01/13 12:05:01;;;;;;;36.50;10.80;;;6.30;99.90;;;;;;5019530;28;20064;-61
2022/01/13 12:07:37;;;;;;;41.58;9.82;;;6.30;99.90;;;;;;5012564;28;20038;-62
2022/01/13 12:10:05;;;;;;;35.25;9.73;;;6.30;99.90;;;;;;5015453;28;20034;-62
2022/01/13 12:12:33;;;;;;;32.20;9.52;;;6.30;99.90;;;;;;5016390;28;20037;-62
2022/01/13 12:15:23;;;;;;;36.13;10.40;;;6.30;99.90;;;;;;5018845;28;20022;-62
2022/01/13 12:17:59;;;;;;;38.20;10.13;;;6.40;99.90;;;;;;5015197;28;20029;-62
2022/01/13 12:20:59;;;;;;;31.05;9.90;;;6.30;99.90;;;;;;5016993;28;20084;-62
2022/01/13 12:23:49;;;;;;;35.47;10.27;;;6.40;99.90;;;;;;5014143;28;20073;-62
2022/01/13 12:26:33;;;;;;;38.25;11.02;;;6.40;99.90;;;;;;5017185;28;20383;-62
2022/01/13 12:29:28;;;;;;;32.00;8.90;;;6.40;99.90;;;;;;5030915;28;20042;-64
2022/01/13 12:32:05;;;;;;;40.85;10.93;;;6.40;99.90;;;;;;5012321;28;20608;-62
2022/01/13 12:34:34;;;;;;;35.38;10.50;;;6.40;99.90;;;;;;5010439;28;20411;-65
2022/01/13 12:37:11;;;;;;;40.83;10.90;;;6.40;99.90;;;;;;5010381;28;20034;-61
2022/01/13 12:39:46;;;;;;;40.95;10.85;;;6.40;99.90;;;;;;5013692;28;20034;-62
2022/01/13 12:42:16;;;;;;;40.97;11.20;;;6.40;99.90;;;;;;5010398;28;20034;-62
2022/01/13 12:47:27;;;;;;;46.25;11.68;;;6.40;99.90;;;;;;5018918;28;20032;-62
2022/01/13 12:49:53;;;;;;;41.35;10.48;;;6.40;99.90;;;;;;5021957;28;20042;-61
2022/01/13 12:52:25;;;;;;;32.40;9.93;;;6.30;99.90;;;;;;5015737;28;20456;-61
2022/01/13 12:54:51;;;;;;;40.28;10.85;;;6.40;99.90;;;;;;5017202;28;20030;-60
2022/01/13 12:57:17;;;;;;;33.25;9.77;;;6.30;99.90;;;;;;5017495;28;20030;-61
2022/01/13 12:59:44;;;;;;;33.15;9.93;;;6.40;99.90;;;;;;5016453;28;20034;-61
2022/01/13 13:02:10;;;;;;;33.30;10.55;;;6.40;99.90;;;;;;5014471;28;20042;-61
2022/01/13 13:04:37;;;;;;;39.33;10.68;;;6.40;99.90;;;;;;5013668;28;20038;-61
2022/01/13 13:07:03;;;;;;;29.50;10.02;;;6.40;99.90;;;;;;5019454;28;20033;-61
2022/01/13 13:09:30;;;;;;;33.35;11.48;;;6.40;99.90;;;;;;5015554;28;20099;-60
2022/01/13 13:12:00;;;;;;;32.42;10.80;;;6.30;99.90;;;;;;5014308;28;20037;-61
2022/01/13 13:15:39;;;;;;;37.47;11.95;;;6.30;99.90;;;;;;5015510;28;20133;-64
2022/01/13 13:17:32;;;;;;;36.15;10.13;;;6.30;99.90;;;;;;5015359;28;20038;-61
2022/01/13 13:19:58;;;;;;;32.92;10.95;;;6.30;99.90;;;;;;5017842;28;20041;-61